sensor_id;sensor_type;location;lat;lon;timestamp;pressure;altitude;pressure_sealevel;temperature;humidity
68988;BME280;56038;46.080;11.116;2023-03-01T00:02:50;99755.50;;;4.03;54.47
68988;BME280;56038;46.080;11.116;2023-03-01T00:07:57;99748.66;;;3.93;54.48
68988;BME280;56038;46.080;11.116;2023-03-01T00:13:04;99739.22;;;3.89;54.62
68988;BME280;56038;46.080;11.116;2023-03-01T00:18:07;99753.91;;;3.87;54.98
68988;BME280;56038;46.080;11.116;2023-03-01T00:23:09;99747.88;;;3.86;54.69
68988;BME280;56038;46.080;11.116;2023-03-01T00:28:13;99737.59;;;3.79;55.54
68988;BME280;56038;46.080;11.116;2023-03-01T00:33:15;99741.97;;;3.68;56.36
68988;BME280;56038;46.080;11.116;2023-03-01T00:38:16;99740.25;;;3.62;56.93
68988;BME280;56038;46.080;11.116;2023-03-01T00:43:20;99743.75;;;3.56;56.52
68988;BME280;56038;46.080;11.116;2023-03-01T00:48:22;99733.38;;;3.61;56.60
68988;BME280;56038;46.080;11.116;2023-03-01T00:53:23;99725.66;;;3.59;56.31
68988;BME280;56038;46.080;11.116;2023-03-01T00:58:26;99723.06;;;3.61;56.61
68988;BME280;56038;46.080;11.116;2023-03-01T01:03:28;99723.06;;;3.59;56.19
68988;BME280;56038;46.080;11.116;2023-03-01T01:08:35;99723.94;;;3.58;56.36
68988;BME280;56038;46.080;11.116;2023-03-01T01:13:44;99712.72;;;3.61;55.96
68988;BME280;56038;46.080;11.116;2023-03-01T01:18:46;99711.03;;;3.57;56.61
68988;BME280;56038;46.080;11.116;2023-03-01T01:23:48;99688.72;;;3.45;56.71
68988;BME280;56038;46.080;11.116;2023-03-01T01:28:52;99691.34;;;3.39;57.04
68988;BME280;56038;46.080;11.116;2023-03-01T01:33:54;99684.50;;;3.35;57.07
68988;BME280;56038;46.080;11.116;2023-03-01T01:38:56;99683.66;;;3.30;57.33
68988;BME280;56038;46.080;11.116;2023-03-01T01:44:21;99664.72;;;3.29;59.55
68988;BME280;56038;46.080;11.116;2023-03-01T01:49:28;99669.97;;;3.19;57.81
68988;BME280;56038;46.080;11.116;2023-03-01T01:54:37;99658.78;;;3.14;58.14
68988;BME280;56038;46.080;11.116;2023-03-01T01:59:44;99659.69;;;3.10;58.02
68988;BME280;56038;46.080;11.116;2023-03-01T02:04:48;99651.09;;;3.08;58.03
68988;BME280;56038;46.080;11.116;2023-03-01T02:09:52;99651.09;;;3.08;57.97
68988;BME280;56038;46.080;11.116;2023-03-01T02:14:57;99651.94;;;3.11;57.60
68988;BME280;56038;46.080;11.116;2023-03-01T02:20:07;99645.09;;;2.99;58.75
68988;BME280;56038;46.080;11.116;2023-03-01T02:25:25;99640.88;;;2.88;59.27
68988;BME280;56038;46.080;11.116;2023-03-01T02:30:29;99622.78;;;2.95;57.95
68988;BME280;56038;46.080;11.116;2023-03-01T02:35:35;99626.22;;;2.94;57.58
68988;BME280;56038;46.080;11.116;2023-03-01T02:40:39;99621.03;;;3.00;57.22
68988;BME280;56038;46.080;11.116;2023-03-01T02:45:48;99615.06;;;2.91;57.60
68988;BME280;56038;46.080;11.116;2023-03-01T02:51:04;99608.28;;;2.73;59.20
68988;BME280;56038;46.080;11.116;2023-03-01T02:56:08;99610.91;;;2.61;58.55
68988;BME280;56038;46.080;11.116;2023-03-01T03:01:14;99600.63;;;2.58;58.66
68988;BME280;56038;46.080;11.116;2023-03-01T03:06:16;99607.41;;;2.68;58.07
68988;BME280;56038;46.080;11.116;2023-03-01T03:11:18;99591.16;;;2.60;58.68
68988;BME280;56038;46.080;11.116;2023-03-01T03:16:21;99590.31;;;2.53;58.23
68988;BME280;56038;46.080;11.116;2023-03-01T03:21:23;99586.88;;;2.56;58.51
68988;BME280;56038;46.080;11.116;2023-03-01T03:26:24;99591.13;;;2.63;57.98
68988;BME280;56038;46.080;11.116;2023-03-01T03:31:27;99579.06;;;2.65;57.93
68988;BME280;56038;46.080;11.116;2023-03-01T03:36:29;99571.34;;;2.65;58.04
68988;BME280;56038;46.080;11.116;2023-03-01T03:41:34;99571.41;;;2.48;58.46
68988;BME280;56038;46.080;11.116;2023-03-01T03:46:37;99574.00;;;2.48;58.79
68988;BME280;56038;46.080;11.116;2023-03-01T03:51:39;99562.03;;;2.35;59.65
68988;BME280;56038;46.080;11.116;2023-03-01T03:56:40;99564.59;;;2.39;59.52
68988;BME280;56038;46.080;11.116;2023-03-01T04:01:45;99554.25;;;2.46;58.90
68988;BME280;56038;46.080;11.116;2023-03-01T04:06:47;99562.81;;;2.48;58.93
68988;BME280;56038;46.080;11.116;2023-03-01T04:11:49;99560.31;;;2.40;59.46
68988;BME280;56038;46.080;11.116;2023-03-01T04:16:53;99556.81;;;2.46;58.91
68988;BME280;56038;46.080;11.116;2023-03-01T04:21:54;99554.28;;;2.41;59.27
68988;BME280;56038;46.080;11.116;2023-03-01T04:26:56;99558.63;;;2.25;59.34
68988;BME280;56038;46.080;11.116;2023-03-01T04:31:59;99557.78;;;2.23;59.43
68988;BME280;56038;46.080;11.116;2023-03-01T04:37:01;99564.63;;;2.30;59.47
68988;BME280;56038;46.080;11.116;2023-03-01T04:42:03;99561.16;;;2.34;59.08
68988;BME280;56038;46.080;11.116;2023-03-01T04:47:06;99552.56;;;2.34;59.00
68988;BME280;56038;46.080;11.116;2023-03-01T04:52:08;99537.97;;;2.37;58.82
68988;BME280;56038;46.080;11.116;2023-03-01T04:57:10;99531.97;;;2.29;58.97
68988;BME280;56038;46.080;11.116;2023-03-01T05:02:13;99546.63;;;2.18;59.45
68988;BME280;56038;46.080;11.116;2023-03-01T05:07:15;99540.59;;;2.19;59.67
68988;BME280;56038;46.080;11.116;2023-03-01T05:12:19;99528.53;;;2.30;59.20
68988;BME280;56038;46.080;11.116;2023-03-01T05:17:22;99530.31;;;2.22;59.47
68988;BME280;56038;46.080;11.116;2023-03-01T05:22:25;99540.59;;;2.19;59.93
68988;BME280;56038;46.080;11.116;2023-03-01T05:27:27;99542.34;;;2.17;59.74
68988;BME280;56038;46.080;11.116;2023-03-01T05:32:31;99540.63;;;2.13;59.69
68988;BME280;56038;46.080;11.116;2023-03-01T05:37:32;99542.34;;;2.17;59.62
68988;BME280;56038;46.080;11.116;2023-03-01T05:42:36;99535.44;;;2.25;59.07
68988;BME280;56038;46.080;11.116;2023-03-01T05:47:39;99534.53;;;2.38;58.64
68988;BME280;56038;46.080;11.116;2023-03-01T05:52:44;99525.97;;;2.27;60.05
68988;BME280;56038;46.080;11.116;2023-03-01T05:57:47;99518.19;;;2.36;59.56
68988;BME280;56038;46.080;11.116;2023-03-01T06:02:50;99512.19;;;2.34;58.99
68988;BME280;56038;46.080;11.116;2023-03-01T06:07:52;99513.88;;;2.42;58.43
68988;BME280;56038;46.080;11.116;2023-03-01T06:13:01;99517.25;;;2.56;59.05
68988;BME280;56038;46.080;11.116;2023-03-01T06:18:05;99535.25;;;2.65;58.06
68988;BME280;56038;46.080;11.116;2023-03-01T06:23:06;99534.34;;;2.72;57.94
68988;BME280;56038;46.080;11.116;2023-03-01T06:28:08;99533.47;;;2.76;57.78
68988;BME280;56038;46.080;11.116;2023-03-01T06:33:11;99535.16;;;2.80;57.80
68988;BME280;56038;46.080;11.116;2023-03-01T06:38:13;99540.28;;;2.86;58.03
68988;BME280;56038;46.080;11.116;2023-03-01T06:43:17;99554.00;;;2.91;57.56
68988;BME280;56038;46.080;11.116;2023-03-01T06:48:20;99567.69;;;3.06;57.23
68988;BME280;56038;46.080;11.116;2023-03-01T06:53:22;99565.81;;;3.26;56.24
68988;BME280;56038;46.080;11.116;2023-03-01T06:58:27;99579.41;;;3.46;55.33
68988;BME280;56038;46.080;11.116;2023-03-01T07:03:30;99568.06;;;3.66;55.24
68988;BME280;56038;46.080;11.116;2023-03-01T07:08:32;99553.28;;;3.80;54.86
68988;BME280;56038;46.080;11.116;2023-03-01T07:13:33;99565.22;;;3.90;55.10
68988;BME280;56038;46.080;11.116;2023-03-01T07:18:37;99562.31;;;4.20;54.50
68988;BME280;56038;46.080;11.116;2023-03-01T07:23:38;99550.91;;;4.37;53.69
68988;BME280;56038;46.080;11.116;2023-03-01T07:28:40;99544.56;;;4.64;52.67
68988;BME280;56038;46.080;11.116;2023-03-01T07:33:43;99550.47;;;4.73;52.15
68988;BME280;56038;46.080;11.116;2023-03-01T07:38:45;99557.22;;;4.84;52.41
68988;BME280;56038;46.080;11.116;2023-03-01T07:43:47;99533.69;;;4.99;51.85
68988;BME280;56038;46.080;11.116;2023-03-01T07:48:50;99540.44;;;5.10;51.74
68988;BME280;56038;46.080;11.116;2023-03-01T07:53:52;99543.72;;;5.19;51.51
68988;BME280;56038;46.080;11.116;2023-03-01T07:58:54;99539.19;;;5.33;51.33
68988;BME280;56038;46.080;11.116;2023-03-01T08:03:57;99542.50;;;5.43;50.91
68988;BME280;56038;46.080;11.116;2023-03-01T08:08:59;99543.28;;;5.48;49.93
68988;BME280;56038;46.080;11.116;2023-03-01T08:14:01;99529.22;;;5.61;49.94
68988;BME280;56038;46.080;11.116;2023-03-01T08:19:05;99542.03;;;5.70;49.33
68988;BME280;56038;46.080;11.116;2023-03-01T08:24:08;99528.91;;;5.79;49.22
68988;BME280;56038;46.080;11.116;2023-03-01T08:29:11;99527.66;;;6.02;49.10
68988;BME280;56038;46.080;11.116;2023-03-01T08:34:15;99516.78;;;6.26;48.55
68988;BME280;56038;46.080;11.116;2023-03-01T08:39:18;99506.13;;;6.40;47.01
68988;BME280;56038;46.080;11.116;2023-03-01T08:44:20;99498.88;;;6.55;47.37
68988;BME280;56038;46.080;11.116;2023-03-01T08:49:24;99486.53;;;6.67;46.49
68988;BME280;56038;46.080;11.116;2023-03-01T08:54:25;99491.72;;;6.67;46.69
68988;BME280;56038;46.080;11.116;2023-03-01T08:59:27;99476.81;;;6.75;46.11
68988;BME280;56038;46.080;11.116;2023-03-01T09:04:31;99455.97;;;6.78;45.93
68988;BME280;56038;46.080;11.116;2023-03-01T09:09:33;99455.44;;;7.01;47.44
68988;BME280;56038;46.080;11.116;2023-03-01T09:14:35;99439.56;;;7.45;47.97
68988;BME280;56038;46.080;11.116;2023-03-01T09:19:39;99441.47;;;7.39;46.21
68988;BME280;56038;46.080;11.116;2023-03-01T09:24:41;99433.78;;;7.34;46.46
68988;BME280;56038;46.080;11.116;2023-03-01T09:29:43;99423.00;;;7.49;46.83
68988;BME280;56038;46.080;11.116;2023-03-01T09:34:46;99407.28;;;7.54;46.11
68988;BME280;56038;46.080;11.116;2023-03-01T09:40:08;99401.13;;;7.57;45.53
68988;BME280;56038;46.080;11.116;2023-03-01T09:45:28;99392.16;;;7.68;44.82
68988;BME280;56038;46.080;11.116;2023-03-01T09:50:35;99390.81;;;7.85;45.38
68988;BME280;56038;46.080;11.116;2023-03-01T09:55:43;99371.22;;;8.02;44.66
68988;BME280;56038;46.080;11.116;2023-03-01T10:00:47;99367.50;;;8.11;44.89
68988;BME280;56038;46.080;11.116;2023-03-01T10:05:58;99358.47;;;8.23;44.14
68988;BME280;56038;46.080;11.116;2023-03-01T10:11:02;99345.38;;;8.26;44.78
68988;BME280;56038;46.080;11.116;2023-03-01T10:16:10;99331.22;;;8.34;44.30
68988;BME280;56038;46.080;11.116;2023-03-01T10:21:18;99326.44;;;8.49;44.43
68988;BME280;56038;46.080;11.116;2023-03-01T10:26:40;99326.84;;;8.63;43.31
68988;BME280;56038;46.080;11.116;2023-03-01T10:31:46;99305.59;;;8.75;43.63
68988;BME280;56038;46.080;11.116;2023-03-01T10:36:51;99300.50;;;8.72;43.31
68988;BME280;56038;46.080;11.116;2023-03-01T10:41:59;99276.56;;;8.87;43.14
68988;BME280;56038;46.080;11.116;2023-03-01T10:47:01;99266.22;;;9.09;43.25
68988;BME280;56038;46.080;11.116;2023-03-01T10:52:19;99255.06;;;9.29;41.81
68988;BME280;56038;46.080;11.116;2023-03-01T10:57:28;99240.19;;;9.33;42.00
68988;BME280;56038;46.080;11.116;2023-03-01T11:02:30;99242.50;;;9.40;42.17
68988;BME280;56038;46.080;11.116;2023-03-01T11:07:47;99238.75;;;9.24;42.04
68988;BME280;56038;46.080;11.116;2023-03-01T11:12:50;99230.31;;;9.17;42.70
68988;BME280;56038;46.080;11.116;2023-03-01T11:17:53;99238.50;;;9.07;43.09
68988;BME280;56038;46.080;11.116;2023-03-01T11:22:59;99247.91;;;8.87;42.67
68988;BME280;56038;46.080;11.116;2023-03-01T11:28:04;99242.88;;;8.81;42.81
68988;BME280;56038;46.080;11.116;2023-03-01T11:33:17;99227.44;;;8.77;42.88
68988;BME280;56038;46.080;11.116;2023-03-01T11:38:22;99225.69;;;8.77;43.15
68988;BME280;56038;46.080;11.116;2023-03-01T11:43:29;99220.59;;;8.74;43.08
68988;BME280;56038;46.080;11.116;2023-03-01T11:48:45;99217.88;;;8.77;43.28
68988;BME280;56038;46.080;11.116;2023-03-01T11:54:06;99207.94;;;8.88;43.36
68988;BME280;56038;46.080;11.116;2023-03-01T12:05:07;99195.50;;;8.95;43.91
68988;BME280;56038;46.080;11.116;2023-03-01T12:10:27;99194.41;;;9.02;43.34
68988;BME280;56038;46.080;11.116;2023-03-01T12:15:50;99188.09;;;9.08;43.29
68988;BME280;56038;46.080;11.116;2023-03-01T12:20:59;99194.03;;;9.11;42.78
68988;BME280;56038;46.080;11.116;2023-03-01T12:26:11;99186.88;;;9.18;42.34
68988;BME280;56038;46.080;11.116;2023-03-01T12:31:47;99189.00;;;9.07;41.23
68988;BME280;56038;46.080;11.116;2023-03-01T12:37:07;99184.59;;;9.09;42.58
68988;BME280;56038;46.080;11.116;2023-03-01T12:42:21;99189.91;;;9.06;42.48
68988;BME280;56038;46.080;11.116;2023-03-01T12:47:38;99187.38;;;9.04;41.24
68988;BME280;56038;46.080;11.116;2023-03-01T12:52:46;99198.53;;;9.08;41.67
68988;BME280;56038;46.080;11.116;2023-03-01T12:57:56;99204.06;;;8.98;42.08
68988;BME280;56038;46.080;11.116;2023-03-01T13:03:10;99197.50;;;8.88;42.44
68988;BME280;56038;46.080;11.116;2023-03-01T13:08:20;99187.19;;;8.85;42.57
68988;BME280;56038;46.080;11.116;2023-03-01T13:13:30;99191.03;;;8.75;43.04
68988;BME280;56038;46.080;11.116;2023-03-01T13:18:33;99199.09;;;8.67;43.43
68988;BME280;56038;46.080;11.116;2023-03-01T13:23:36;99202.47;;;8.71;43.47
68988;BME280;56038;46.080;11.116;2023-03-01T13:29:01;99203.16;;;8.76;43.02
68988;BME280;56038;46.080;11.116;2023-03-01T13:34:03;99191.50;;;8.86;43.17
68988;BME280;56038;46.080;11.116;2023-03-01T13:39:28;99178.25;;;8.92;43.81
68988;BME280;56038;46.080;11.116;2023-03-01T13:44:35;99180.06;;;8.90;43.75
68988;BME280;56038;46.080;11.116;2023-03-01T13:49:43;99181.53;;;8.97;43.82
68988;BME280;56038;46.080;11.116;2023-03-01T13:54:46;99181.44;;;9.00;43.85
68988;BME280;56038;46.080;11.116;2023-03-01T13:59:49;99182.03;;;9.07;43.34
68988;BME280;56038;46.080;11.116;2023-03-01T14:04:56;99169.63;;;9.14;43.12
68988;BME280;56038;46.080;11.116;2023-03-01T14:10:00;99175.88;;;9.10;43.50
68988;BME280;56038;46.080;11.116;2023-03-01T14:15:06;99160.16;;;9.11;43.31
68988;BME280;56038;46.080;11.116;2023-03-01T14:20:19;99157.50;;;9.13;43.22
68988;BME280;56038;46.080;11.116;2023-03-01T14:25:31;99159.13;;;9.17;42.20
68988;BME280;56038;46.080;11.116;2023-03-01T14:30:37;99151.91;;;9.23;42.65
68988;BME280;56038;46.080;11.116;2023-03-01T14:35:40;99144.22;;;9.20;42.89
68988;BME280;56038;46.080;11.116;2023-03-01T14:40:42;99134.63;;;9.21;43.14
68988;BME280;56038;46.080;11.116;2023-03-01T14:45:49;99131.91;;;9.24;42.40
68988;BME280;56038;46.080;11.116;2023-03-01T14:51:04;99134.31;;;9.28;42.90
68988;BME280;56038;46.080;11.116;2023-03-01T14:56:14;99128.09;;;9.33;42.72
68988;BME280;56038;46.080;11.116;2023-03-01T15:01:19;99122.94;;;9.31;43.01
68988;BME280;56038;46.080;11.116;2023-03-01T15:06:22;99120.34;;;9.31;42.76
68988;BME280;56038;46.080;11.116;2023-03-01T15:11:28;99116.00;;;9.30;42.84
68988;BME280;56038;46.080;11.116;2023-03-01T15:16:39;99117.03;;;9.26;42.55
68988;BME280;56038;46.080;11.116;2023-03-01T15:21:48;99098.81;;;9.26;43.00
68988;BME280;56038;46.080;11.116;2023-03-01T15:26:52;99098.09;;;9.22;43.30
68988;BME280;56038;46.080;11.116;2023-03-01T15:32:00;99081.59;;;9.22;43.08
68988;BME280;56038;46.080;11.116;2023-03-01T15:42:12;99084.19;;;9.22;43.68
68988;BME280;56038;46.080;11.116;2023-03-01T15:47:28;99082.09;;;9.32;43.69
68988;BME280;56038;46.080;11.116;2023-03-01T15:52:34;99073.81;;;9.42;44.14
68988;BME280;56038;46.080;11.116;2023-03-01T15:57:39;99072.25;;;9.38;43.37
68988;BME280;56038;46.080;11.116;2023-03-01T16:02:43;99074.16;;;9.35;43.94
68988;BME280;56038;46.080;11.116;2023-03-01T16:07:45;99088.63;;;9.20;44.14
68988;BME280;56038;46.080;11.116;2023-03-01T16:12:47;99077.50;;;9.15;44.38
68988;BME280;56038;46.080;11.116;2023-03-01T16:17:51;99075.09;;;9.10;44.76
68988;BME280;56038;46.080;11.116;2023-03-01T16:22:53;99068.25;;;9.08;44.98
68988;BME280;56038;46.080;11.116;2023-03-01T16:27:55;99064.88;;;9.06;44.92
68988;BME280;56038;46.080;11.116;2023-03-01T16:33:00;99063.16;;;9.05;44.66
68988;BME280;56038;46.080;11.116;2023-03-01T16:38:01;99060.69;;;9.02;44.99
68988;BME280;56038;46.080;11.116;2023-03-01T16:43:03;99066.84;;;8.99;44.60
68988;BME280;56038;46.080;11.116;2023-03-01T16:48:07;99056.38;;;9.00;45.21
68988;BME280;56038;46.080;11.116;2023-03-01T16:53:09;99073.16;;;8.93;44.79
68988;BME280;56038;46.080;11.116;2023-03-01T16:58:11;99068.84;;;9.14;47.05
68988;BME280;56038;46.080;11.116;2023-03-01T17:03:14;99059.59;;;9.07;45.28
68988;BME280;56038;46.080;11.116;2023-03-01T17:08:17;99075.41;;;9.03;45.19
68988;BME280;56038;46.080;11.116;2023-03-01T17:13:19;99092.59;;;8.85;45.16
68988;BME280;56038;46.080;11.116;2023-03-01T17:18:22;99100.72;;;8.27;49.17
68988;BME280;56038;46.080;11.116;2023-03-01T17:23:25;99103.03;;;7.85;50.93
68988;BME280;56038;46.080;11.116;2023-03-01T17:28:29;99111.50;;;7.65;52.21
68988;BME280;56038;46.080;11.116;2023-03-01T17:33:33;99118.78;;;7.54;52.09
68988;BME280;56038;46.080;11.116;2023-03-01T17:38:35;99125.66;;;7.55;52.97
68988;BME280;56038;46.080;11.116;2023-03-01T17:43:37;99145.25;;;7.39;53.98
68988;BME280;56038;46.080;11.116;2023-03-01T17:48:40;99148.03;;;7.33;53.99
68988;BME280;56038;46.080;11.116;2023-03-01T17:53:42;99165.56;;;7.26;55.04
68988;BME280;56038;46.080;11.116;2023-03-01T17:58:44;99180.38;;;7.22;54.67
68988;BME280;56038;46.080;11.116;2023-03-01T18:03:49;99189.81;;;7.25;54.39
68988;BME280;56038;46.080;11.116;2023-03-01T18:08:51;99219.28;;;7.24;55.21
68988;BME280;56038;46.080;11.116;2023-03-01T18:13:54;99213.38;;;7.19;55.55
68988;BME280;56038;46.080;11.116;2023-03-01T18:18:58;99237.53;;;7.22;56.66
68988;BME280;56038;46.080;11.116;2023-03-01T18:24:00;99231.56;;;7.19;58.48
68988;BME280;56038;46.080;11.116;2023-03-01T18:29:02;99256.69;;;7.18;57.83
68988;BME280;56038;46.080;11.116;2023-03-01T18:34:08;99263.69;;;7.16;61.12
68988;BME280;56038;46.080;11.116;2023-03-01T18:39:11;99270.72;;;7.13;61.23
68988;BME280;56038;46.080;11.116;2023-03-01T18:44:14;99292.22;;;7.18;61.93
68988;BME280;56038;46.080;11.116;2023-03-01T18:49:18;99305.25;;;7.16;63.18
68988;BME280;56038;46.080;11.116;2023-03-01T18:54:20;99316.56;;;7.14;62.85
68988;BME280;56038;46.080;11.116;2023-03-01T18:59:21;99314.97;;;7.08;64.23
68988;BME280;56038;46.080;11.116;2023-03-01T19:04:25;99322.09;;;7.02;64.68
68988;BME280;56038;46.080;11.116;2023-03-01T19:09:27;99343.13;;;6.91;65.51
68988;BME280;56038;46.080;11.116;2023-03-01T19:14:29;99344.19;;;6.84;66.57
68988;BME280;56038;46.080;11.116;2023-03-01T19:19:32;99357.19;;;6.84;67.99
68988;BME280;56038;46.080;11.116;2023-03-01T19:24:35;99362.50;;;6.78;67.44
68988;BME280;56038;46.080;11.116;2023-03-01T19:29:37;99363.56;;;6.71;67.50
68988;BME280;56038;46.080;11.116;2023-03-01T19:34:40;99367.75;;;6.76;66.94
68988;BME280;56038;46.080;11.116;2023-03-01T19:39:42;99369.47;;;6.76;69.22
68988;BME280;56038;46.080;11.116;2023-03-01T19:44:45;99364.53;;;6.67;69.53
68988;BME280;56038;46.080;11.116;2023-03-01T19:49:48;99386.22;;;6.63;68.85
68988;BME280;56038;46.080;11.116;2023-03-01T19:54:50;99386.31;;;6.59;69.08
68988;BME280;56038;46.080;11.116;2023-03-01T19:59:51;99388.19;;;6.54;69.83
68988;BME280;56038;46.080;11.116;2023-03-01T20:04:56;99398.63;;;6.51;70.73
68988;BME280;56038;46.080;11.116;2023-03-01T20:09:58;99416.78;;;6.51;70.16
68988;BME280;56038;46.080;11.116;2023-03-01T20:15:00;99409.91;;;6.50;69.65
68988;BME280;56038;46.080;11.116;2023-03-01T20:20:04;99419.31;;;6.54;71.29
68988;BME280;56038;46.080;11.116;2023-03-01T20:25:07;99431.41;;;6.55;69.93
68988;BME280;56038;46.080;11.116;2023-03-01T20:30:11;99432.25;;;6.56;70.30
68988;BME280;56038;46.080;11.116;2023-03-01T20:35:14;99438.44;;;6.50;69.85
68988;BME280;56038;46.080;11.116;2023-03-01T20:40:16;99441.06;;;6.49;70.77
68988;BME280;56038;46.080;11.116;2023-03-01T20:45:20;99438.53;;;6.46;71.02
68988;BME280;56038;46.080;11.116;2023-03-01T20:50:23;99447.16;;;6.46;73.40
68988;BME280;56038;46.080;11.116;2023-03-01T20:55:25;99443.09;;;6.36;74.44
68988;BME280;56038;46.080;11.116;2023-03-01T21:00:27;99456.06;;;6.36;72.98
68988;BME280;56038;46.080;11.116;2023-03-01T21:05:32;99460.44;;;6.34;75.17
68988;BME280;56038;46.080;11.116;2023-03-01T21:10:33;99464.50;;;6.44;72.13
68988;BME280;56038;46.080;11.116;2023-03-01T21:15:35;99463.50;;;6.51;71.15
68988;BME280;56038;46.080;11.116;2023-03-01T21:20:38;99460.91;;;6.51;71.93
68988;BME280;56038;46.080;11.116;2023-03-01T21:25:42;99458.19;;;6.56;72.61
68988;BME280;56038;46.080;11.116;2023-03-01T21:30:44;99459.13;;;6.53;72.48
68988;BME280;56038;46.080;11.116;2023-03-01T21:35:47;99449.53;;;6.57;72.07
68988;BME280;56038;46.080;11.116;2023-03-01T21:40:49;99452.13;;;6.57;72.63
68988;BME280;56038;46.080;11.116;2023-03-01T21:45:51;99455.66;;;6.54;73.68
68988;BME280;56038;46.080;11.116;2023-03-01T21:50:55;99453.22;;;6.47;75.12
68988;BME280;56038;46.080;11.116;2023-03-01T21:55:57;99454.91;;;6.49;74.41
68988;BME280;56038;46.080;11.116;2023-03-01T22:01:06;99461.94;;;6.43;75.28
68988;BME280;56038;46.080;11.116;2023-03-01T22:06:11;99452.44;;;6.43;75.86
68988;BME280;56038;46.080;11.116;2023-03-01T22:11:18;99457.69;;;6.40;77.54
68988;BME280;56038;46.080;11.116;2023-03-01T22:16:23;99450.97;;;6.30;77.30
68988;BME280;56038;46.080;11.116;2023-03-01T22:21:27;99451.84;;;6.32;76.70
68988;BME280;56038;46.080;11.116;2023-03-01T22:26:31;99439.56;;;6.39;76.15
68988;BME280;56038;46.080;11.116;2023-03-01T22:31:33;99439.56;;;6.39;77.19
68988;BME280;56038;46.080;11.116;2023-03-01T22:36:36;99443.97;;;6.35;77.61
68988;BME280;56038;46.080;11.116;2023-03-01T22:41:41;99447.34;;;6.39;76.84
68988;BME280;56038;46.080;11.116;2023-03-01T22:46:45;99444.66;;;6.43;77.04
68988;BME280;56038;46.080;11.116;2023-03-01T22:51:49;99438.72;;;6.38;77.36
68988;BME280;56038;46.080;11.116;2023-03-01T22:56:50;99437.03;;;6.36;77.06
68988;BME280;56038;46.080;11.116;2023-03-01T23:01:53;99435.19;;;6.41;76.65
68988;BME280;56038;46.080;11.116;2023-03-01T23:06:56;99440.28;;;6.45;76.26
68988;BME280;56038;46.080;11.116;2023-03-01T23:12:00;99443.75;;;6.44;76.93
68988;BME280;56038;46.080;11.116;2023-03-01T23:17:05;99435.94;;;6.47;78.13
68988;BME280;56038;46.080;11.116;2023-03-01T23:22:11;99441.28;;;6.40;77.08
68988;BME280;56038;46.080;11.116;2023-03-01T23:27:13;99440.41;;;6.39;76.34
68988;BME280;56038;46.080;11.116;2023-03-01T23:32:16;99440.28;;;6.45;77.12
68988;BME280;56038;46.080;11.116;2023-03-01T23:37:19;99434.31;;;6.42;78.29
68988;BME280;56038;46.080;11.116;2023-03-01T23:42:21;99438.75;;;6.37;78.59
68988;BME280;56038;46.080;11.116;2023-03-01T23:47:23;99428.47;;;6.32;78.39
68988;BME280;56038;46.080;11.116;2023-03-01T23:52:26;99430.22;;;6.30;78.66
68988;BME280;56038;46.080;11.116;2023-03-01T23:57:28;99440.75;;;6.24;78.74
